Korsor, Denmark
Current Conditions -  °F | °C
As of 8:20 PM on Saturday 25 Oct 2014 (Local Time) from EKRK Reporting Station
Haze Haze  
Wind Chill: 54°   Ceiling: 2300
Heat Index: 54°   Visibility: 2.5mi
Dew Point: 52°   Wind: 9mph
Humidity: 94%   Direction: 200°SSW
Pressure: 30.03"   Gusts: NA
Location:  55.33°N, 11.14°E
Report Text: EKRK 251820Z AUTO 20008KT 4100NDV BR FEW006/// SCT019///BKN023/// BKN029/// 12/11 Q1017
Loading
Personal Weather Stations






























Interactive Weather Map
Tropical Storm Tracking
New forecast layout! Learn more

10-Day Weather Forecast

Advertisements
Track Severe Weather on mobile